sensor_id;sensor_type;location;lat;lon;timestamp;temperature;humidity
19025;DHT22;9645;51.448;6.260;2022-07-06T00:02:55;12.00;99.90
19025;DHT22;9645;51.448;6.260;2022-07-06T00:05:23;12.00;99.90
19025;DHT22;9645;51.448;6.260;2022-07-06T00:12:45;12.00;99.90
19025;DHT22;9645;51.448;6.260;2022-07-06T00:15:12;12.00;99.90
19025;DHT22;9645;51.448;6.260;2022-07-06T00:20:07;11.90;99.90
19025;DHT22;9645;51.448;6.260;2022-07-06T00:22:35;11.90;99.90
19025;DHT22;9645;51.448;6.260;2022-07-06T00:25:03;11.90;99.90
19025;DHT22;9645;51.448;6.260;2022-07-06T00:27:30;11.80;99.90
19025;DHT22;9645;51.448;6.260;2022-07-06T00:29:57;11.70;99.90
19025;DHT22;9645;51.448;6.260;2022-07-06T00:34:53;11.70;99.90
19025;DHT22;9645;51.448;6.260;2022-07-06T00:37:20;11.60;99.90
19025;DHT22;9645;51.448;6.260;2022-07-06T00:39:48;11.60;99.90
19025;DHT22;9645;51.448;6.260;2022-07-06T00:42:15;11.60;99.90
19025;DHT22;9645;51.448;6.260;2022-07-06T00:44:42;11.50;99.90
19025;DHT22;9645;51.448;6.260;2022-07-06T00:47:09;11.50;99.90
19025;DHT22;9645;51.448;6.260;2022-07-06T00:49:36;11.40;99.90
19025;DHT22;9645;51.448;6.260;2022-07-06T00:52:20;11.40;99.90
19025;DHT22;9645;51.448;6.260;2022-07-06T00:54:49;11.40;99.90
19025;DHT22;9645;51.448;6.260;2022-07-06T00:57:17;11.40;99.90
19025;DHT22;9645;51.448;6.260;2022-07-06T00:59:45;11.30;99.90
19025;DHT22;9645;51.448;6.260;2022-07-06T01:02:12;11.30;99.90
19025;DHT22;9645;51.448;6.260;2022-07-06T01:04:39;11.30;99.90
19025;DHT22;9645;51.448;6.260;2022-07-06T01:07:06;11.20;99.90
19025;DHT22;9645;51.448;6.260;2022-07-06T01:09:33;11.20;99.90
19025;DHT22;9645;51.448;6.260;2022-07-06T01:12:01;11.10;99.90
19025;DHT22;9645;51.448;6.260;2022-07-06T01:14:28;11.20;99.90
19025;DHT22;9645;51.448;6.260;2022-07-06T01:16:56;11.10;99.90
19025;DHT22;9645;51.448;6.260;2022-07-06T01:19:23;11.10;99.90
19025;DHT22;9645;51.448;6.260;2022-07-06T01:21:52;11.10;99.90
19025;DHT22;9645;51.448;6.260;2022-07-06T01:24:19;11.10;99.90
19025;DHT22;9645;51.448;6.260;2022-07-06T01:26:46;11.00;99.90
19025;DHT22;9645;51.448;6.260;2022-07-06T01:29:13;11.00;99.90
19025;DHT22;9645;51.448;6.260;2022-07-06T01:31:46;11.00;99.90
19025;DHT22;9645;51.448;6.260;2022-07-06T01:34:15;11.00;99.90
19025;DHT22;9645;51.448;6.260;2022-07-06T01:36:43;10.80;99.90
19025;DHT22;9645;51.448;6.260;2022-07-06T01:39:11;10.90;99.90
19025;DHT22;9645;51.448;6.260;2022-07-06T01:41:39;10.90;99.90
19025;DHT22;9645;51.448;6.260;2022-07-06T01:44:06;10.90;99.90
19025;DHT22;9645;51.448;6.260;2022-07-06T01:46:33;10.80;99.90
19025;DHT22;9645;51.448;6.260;2022-07-06T01:49:01;10.70;99.90
19025;DHT22;9645;51.448;6.260;2022-07-06T01:51:28;10.80;99.90
19025;DHT22;9645;51.448;6.260;2022-07-06T01:53:55;10.70;99.90
19025;DHT22;9645;51.448;6.260;2022-07-06T01:56:24;10.70;99.90
19025;DHT22;9645;51.448;6.260;2022-07-06T01:58:51;10.70;99.90
19025;DHT22;9645;51.448;6.260;2022-07-06T02:01:19;10.70;99.90
19025;DHT22;9645;51.448;6.260;2022-07-06T02:03:46;10.60;99.90
19025;DHT22;9645;51.448;6.260;2022-07-06T02:06:14;10.70;99.90
19025;DHT22;9645;51.448;6.260;2022-07-06T02:08:41;10.70;99.90
19025;DHT22;9645;51.448;6.260;2022-07-06T02:11:09;11.20;99.90
19025;DHT22;9645;51.448;6.260;2022-07-06T02:13:38;10.60;99.90
19025;DHT22;9645;51.448;6.260;2022-07-06T02:16:06;10.70;99.90
19025;DHT22;9645;51.448;6.260;2022-07-06T02:18:32;10.60;99.90
19025;DHT22;9645;51.448;6.260;2022-07-06T02:21:00;10.60;99.90
19025;DHT22;9645;51.448;6.260;2022-07-06T02:23:27;10.50;99.90
19025;DHT22;9645;51.448;6.260;2022-07-06T02:25:54;10.60;99.90
19025;DHT22;9645;51.448;6.260;2022-07-06T02:28:21;10.50;99.90
19025;DHT22;9645;51.448;6.260;2022-07-06T02:30:49;10.50;99.90
19025;DHT22;9645;51.448;6.260;2022-07-06T02:33:16;10.50;99.90
19025;DHT22;9645;51.448;6.260;2022-07-06T02:35:43;10.40;99.90
19025;DHT22;9645;51.448;6.260;2022-07-06T02:38:10;10.40;99.90
19025;DHT22;9645;51.448;6.260;2022-07-06T02:40:37;10.40;99.90
19025;DHT22;9645;51.448;6.260;2022-07-06T02:43:05;10.40;99.90
19025;DHT22;9645;51.448;6.260;2022-07-06T02:45:32;10.30;99.90
19025;DHT22;9645;51.448;6.260;2022-07-06T02:48:00;10.30;99.90
19025;DHT22;9645;51.448;6.260;2022-07-06T02:50:27;10.30;99.90
19025;DHT22;9645;51.448;6.260;2022-07-06T02:52:54;10.30;99.90
19025;DHT22;9645;51.448;6.260;2022-07-06T02:55:22;10.30;99.90
19025;DHT22;9645;51.448;6.260;2022-07-06T02:57:49;10.20;99.90
19025;DHT22;9645;51.448;6.260;2022-07-06T03:00:16;10.20;99.90
19025;DHT22;9645;51.448;6.260;2022-07-06T03:02:43;10.20;99.90
19025;DHT22;9645;51.448;6.260;2022-07-06T03:05:11;10.20;99.90
19025;DHT22;9645;51.448;6.260;2022-07-06T03:07:38;10.20;99.90
19025;DHT22;9645;51.448;6.260;2022-07-06T03:10:06;10.20;99.90
19025;DHT22;9645;51.448;6.260;2022-07-06T03:12:33;10.20;99.90
19025;DHT22;9645;51.448;6.260;2022-07-06T03:15:00;10.20;99.90
19025;DHT22;9645;51.448;6.260;2022-07-06T03:17:27;10.20;99.90
19025;DHT22;9645;51.448;6.260;2022-07-06T03:19:54;10.20;99.90
19025;DHT22;9645;51.448;6.260;2022-07-06T03:22:22;10.20;99.90
19025;DHT22;9645;51.448;6.260;2022-07-06T03:24:50;10.10;99.90
19025;DHT22;9645;51.448;6.260;2022-07-06T03:27:17;10.10;99.90
19025;DHT22;9645;51.448;6.260;2022-07-06T03:29:44;10.10;99.90
19025;DHT22;9645;51.448;6.260;2022-07-06T03:32:11;10.10;99.90
19025;DHT22;9645;51.448;6.260;2022-07-06T03:34:38;10.10;99.90
19025;DHT22;9645;51.448;6.260;2022-07-06T03:37:05;10.10;99.90
19025;DHT22;9645;51.448;6.260;2022-07-06T03:39:33;10.10;99.90
19025;DHT22;9645;51.448;6.260;2022-07-06T03:42:00;10.10;99.90
19025;DHT22;9645;51.448;6.260;2022-07-06T03:44:27;10.10;99.90
19025;DHT22;9645;51.448;6.260;2022-07-06T03:46:54;12.00;99.90
19025;DHT22;9645;51.448;6.260;2022-07-06T03:49:22;10.10;99.90
19025;DHT22;9645;51.448;6.260;2022-07-06T03:51:52;10.10;99.90
19025;DHT22;9645;51.448;6.260;2022-07-06T03:54:19;10.10;99.90
19025;DHT22;9645;51.448;6.260;2022-07-06T03:56:48;10.10;99.90
19025;DHT22;9645;51.448;6.260;2022-07-06T03:59:15;10.10;99.90
19025;DHT22;9645;51.448;6.260;2022-07-06T04:01:42;10.20;99.90
19025;DHT22;9645;51.448;6.260;2022-07-06T04:04:09;10.20;99.90
19025;DHT22;9645;51.448;6.260;2022-07-06T04:06:36;10.20;99.90
19025;DHT22;9645;51.448;6.260;2022-07-06T04:09:04;10.20;99.90
19025;DHT22;9645;51.448;6.260;2022-07-06T04:11:31;10.20;99.90
19025;DHT22;9645;51.448;6.260;2022-07-06T04:13:59;10.20;99.90
19025;DHT22;9645;51.448;6.260;2022-07-06T04:16:26;10.20;99.90
19025;DHT22;9645;51.448;6.260;2022-07-06T04:18:53;10.20;99.90
19025;DHT22;9645;51.448;6.260;2022-07-06T04:21:20;10.20;99.90
19025;DHT22;9645;51.448;6.260;2022-07-06T04:23:47;10.30;99.90
19025;DHT22;9645;51.448;6.260;2022-07-06T04:26:14;10.40;99.90
19025;DHT22;9645;51.448;6.260;2022-07-06T04:28:41;10.40;99.90
19025;DHT22;9645;51.448;6.260;2022-07-06T04:31:10;10.50;99.90
19025;DHT22;9645;51.448;6.260;2022-07-06T04:33:40;10.60;99.90
19025;DHT22;9645;51.448;6.260;2022-07-06T04:36:07;10.70;99.90
19025;DHT22;9645;51.448;6.260;2022-07-06T04:38:34;10.80;99.90
19025;DHT22;9645;51.448;6.260;2022-07-06T04:41:02;10.90;99.90
19025;DHT22;9645;51.448;6.260;2022-07-06T04:43:29;10.90;99.90
19025;DHT22;9645;51.448;6.260;2022-07-06T04:45:56;11.00;99.90
19025;DHT22;9645;51.448;6.260;2022-07-06T04:48:24;11.00;99.90
19025;DHT22;9645;51.448;6.260;2022-07-06T04:50:56;11.10;99.90
19025;DHT22;9645;51.448;6.260;2022-07-06T04:53:23;11.20;99.90
19025;DHT22;9645;51.448;6.260;2022-07-06T04:55:51;11.30;99.90
19025;DHT22;9645;51.448;6.260;2022-07-06T04:58:18;11.40;99.90
19025;DHT22;9645;51.448;6.260;2022-07-06T05:00:45;11.50;99.90
19025;DHT22;9645;51.448;6.260;2022-07-06T05:03:12;11.50;99.90
19025;DHT22;9645;51.448;6.260;2022-07-06T05:05:40;11.60;99.90
19025;DHT22;9645;51.448;6.260;2022-07-06T05:08:07;11.60;99.90
19025;DHT22;9645;51.448;6.260;2022-07-06T05:10:34;11.80;99.90
19025;DHT22;9645;51.448;6.260;2022-07-06T05:13:01;11.90;99.90
19025;DHT22;9645;51.448;6.260;2022-07-06T05:15:28;12.00;99.90
19025;DHT22;9645;51.448;6.260;2022-07-06T05:17:56;12.10;99.90
19025;DHT22;9645;51.448;6.260;2022-07-06T05:20:23;12.20;99.90
19025;DHT22;9645;51.448;6.260;2022-07-06T05:22:51;12.20;99.90
19025;DHT22;9645;51.448;6.260;2022-07-06T05:25:18;12.30;99.90
19025;DHT22;9645;51.448;6.260;2022-07-06T05:27:45;12.30;99.90
19025;DHT22;9645;51.448;6.260;2022-07-06T05:30:12;12.40;99.90
19025;DHT22;9645;51.448;6.260;2022-07-06T05:32:40;12.50;99.90
19025;DHT22;9645;51.448;6.260;2022-07-06T05:35:08;12.50;99.90
19025;DHT22;9645;51.448;6.260;2022-07-06T05:37:35;12.40;99.90
19025;DHT22;9645;51.448;6.260;2022-07-06T05:40:04;12.30;99.90
19025;DHT22;9645;51.448;6.260;2022-07-06T05:42:31;12.30;99.90
19025;DHT22;9645;51.448;6.260;2022-07-06T05:44:58;12.30;99.90
19025;DHT22;9645;51.448;6.260;2022-07-06T05:47:25;12.30;99.90
19025;DHT22;9645;51.448;6.260;2022-07-06T05:50:10;12.40;99.90
19025;DHT22;9645;51.448;6.260;2022-07-06T05:52:40;12.50;99.90
19025;DHT22;9645;51.448;6.260;2022-07-06T05:55:09;12.60;99.90
19025;DHT22;9645;51.448;6.260;2022-07-06T05:57:36;12.60;99.90
19025;DHT22;9645;51.448;6.260;2022-07-06T06:00:05;12.60;99.90
19025;DHT22;9645;51.448;6.260;2022-07-06T06:02:39;12.60;99.90
19025;DHT22;9645;51.448;6.260;2022-07-06T06:05:09;12.70;99.90
19025;DHT22;9645;51.448;6.260;2022-07-06T06:07:37;12.80;99.90
19025;DHT22;9645;51.448;6.260;2022-07-06T06:10:05;12.90;99.90
19025;DHT22;9645;51.448;6.260;2022-07-06T06:12:34;12.90;99.90
19025;DHT22;9645;51.448;6.260;2022-07-06T06:15:02;13.00;99.90
19025;DHT22;9645;51.448;6.260;2022-07-06T06:17:29;13.40;99.90
19025;DHT22;9645;51.448;6.260;2022-07-06T06:19:57;13.80;99.90
19025;DHT22;9645;51.448;6.260;2022-07-06T06:22:24;14.30;99.90
19025;DHT22;9645;51.448;6.260;2022-07-06T06:24:51;14.70;99.90
19025;DHT22;9645;51.448;6.260;2022-07-06T06:27:18;15.10;99.90
19025;DHT22;9645;51.448;6.260;2022-07-06T06:29:47;15.40;99.90
19025;DHT22;9645;51.448;6.260;2022-07-06T06:32:14;15.70;99.90
19025;DHT22;9645;51.448;6.260;2022-07-06T06:34:41;16.00;99.90
19025;DHT22;9645;51.448;6.260;2022-07-06T06:37:08;16.20;99.90
19025;DHT22;9645;51.448;6.260;2022-07-06T06:39:35;16.50;99.90
19025;DHT22;9645;51.448;6.260;2022-07-06T06:42:02;16.90;99.90
19025;DHT22;9645;51.448;6.260;2022-07-06T06:44:29;17.20;99.90
19025;DHT22;9645;51.448;6.260;2022-07-06T06:46:57;17.70;99.90
19025;DHT22;9645;51.448;6.260;2022-07-06T06:49:24;18.10;99.90
19025;DHT22;9645;51.448;6.260;2022-07-06T06:51:51;18.20;99.90
19025;DHT22;9645;51.448;6.260;2022-07-06T06:54:18;18.10;99.90
19025;DHT22;9645;51.448;6.260;2022-07-06T06:56:45;18.10;99.90
19025;DHT22;9645;51.448;6.260;2022-07-06T06:59:12;18.00;99.90
19025;DHT22;9645;51.448;6.260;2022-07-06T07:01:39;17.80;99.90
19025;DHT22;9645;51.448;6.260;2022-07-06T07:04:08;17.80;99.90
19025;DHT22;9645;51.448;6.260;2022-07-06T07:06:35;17.90;99.90
19025;DHT22;9645;51.448;6.260;2022-07-06T07:09:02;18.00;99.90
19025;DHT22;9645;51.448;6.260;2022-07-06T07:11:29;17.90;99.90
19025;DHT22;9645;51.448;6.260;2022-07-06T07:13:56;17.80;99.90
19025;DHT22;9645;51.448;6.260;2022-07-06T07:16:23;17.80;99.90
19025;DHT22;9645;51.448;6.260;2022-07-06T07:18:50;18.00;99.90
19025;DHT22;9645;51.448;6.260;2022-07-06T07:21:18;17.80;99.90
19025;DHT22;9645;51.448;6.260;2022-07-06T07:23:45;17.80;99.90
19025;DHT22;9645;51.448;6.260;2022-07-06T07:26:12;17.80;99.90
19025;DHT22;9645;51.448;6.260;2022-07-06T07:28:40;18.00;99.90
19025;DHT22;9645;51.448;6.260;2022-07-06T07:31:07;18.00;99.90
19025;DHT22;9645;51.448;6.260;2022-07-06T07:33:34;18.10;99.90
19025;DHT22;9645;51.448;6.260;2022-07-06T07:36:01;18.10;99.90
19025;DHT22;9645;51.448;6.260;2022-07-06T07:38:29;18.00;99.90
19025;DHT22;9645;51.448;6.260;2022-07-06T07:40:56;18.00;99.90
19025;DHT22;9645;51.448;6.260;2022-07-06T07:43:23;18.20;99.90
19025;DHT22;9645;51.448;6.260;2022-07-06T07:45:50;18.10;99.90
19025;DHT22;9645;51.448;6.260;2022-07-06T07:48:17;18.30;99.90
19025;DHT22;9645;51.448;6.260;2022-07-06T07:50:44;18.50;99.90
19025;DHT22;9645;51.448;6.260;2022-07-06T07:53:11;19.10;99.90
19025;DHT22;9645;51.448;6.260;2022-07-06T07:55:40;19.40;99.90
19025;DHT22;9645;51.448;6.260;2022-07-06T07:58:07;19.40;99.90
19025;DHT22;9645;51.448;6.260;2022-07-06T08:00:34;19.50;99.90
19025;DHT22;9645;51.448;6.260;2022-07-06T08:03:01;19.60;99.90
19025;DHT22;9645;51.448;6.260;2022-07-06T08:05:28;19.70;99.90
19025;DHT22;9645;51.448;6.260;2022-07-06T08:07:55;19.70;99.90
19025;DHT22;9645;51.448;6.260;2022-07-06T08:10:22;19.70;99.90
19025;DHT22;9645;51.448;6.260;2022-07-06T08:12:50;19.40;99.90
19025;DHT22;9645;51.448;6.260;2022-07-06T08:15:17;19.40;99.90
19025;DHT22;9645;51.448;6.260;2022-07-06T08:17:44;19.80;99.90
19025;DHT22;9645;51.448;6.260;2022-07-06T08:20:11;20.20;99.90
19025;DHT22;9645;51.448;6.260;2022-07-06T08:22:38;20.50;99.90
19025;DHT22;9645;51.448;6.260;2022-07-06T08:25:06;20.60;99.90
19025;DHT22;9645;51.448;6.260;2022-07-06T08:27:34;20.50;99.90
19025;DHT22;9645;51.448;6.260;2022-07-06T08:30:03;20.10;99.90
19025;DHT22;9645;51.448;6.260;2022-07-06T08:32:30;19.90;99.90
19025;DHT22;9645;51.448;6.260;2022-07-06T08:34:57;19.50;99.90
19025;DHT22;9645;51.448;6.260;2022-07-06T08:37:24;19.20;99.90
19025;DHT22;9645;51.448;6.260;2022-07-06T08:39:51;19.20;99.90
19025;DHT22;9645;51.448;6.260;2022-07-06T08:42:18;19.20;99.90
19025;DHT22;9645;51.448;6.260;2022-07-06T08:44:46;19.30;99.90
19025;DHT22;9645;51.448;6.260;2022-07-06T08:47:15;19.40;99.90
19025;DHT22;9645;51.448;6.260;2022-07-06T08:49:43;19.90;99.90
19025;DHT22;9645;51.448;6.260;2022-07-06T08:52:11;20.70;99.90
19025;DHT22;9645;51.448;6.260;2022-07-06T08:54:38;21.10;99.90
19025;DHT22;9645;51.448;6.260;2022-07-06T08:57:07;21.30;99.90
19025;DHT22;9645;51.448;6.260;2022-07-06T08:59:34;21.10;99.90
19025;DHT22;9645;51.448;6.260;2022-07-06T09:02:03;21.00;99.90
19025;DHT22;9645;51.448;6.260;2022-07-06T09:04:33;20.60;99.90
19025;DHT22;9645;51.448;6.260;2022-07-06T09:07:00;20.50;99.90
19025;DHT22;9645;51.448;6.260;2022-07-06T09:09:29;20.50;99.90
19025;DHT22;9645;51.448;6.260;2022-07-06T09:11:57;20.50;99.90
19025;DHT22;9645;51.448;6.260;2022-07-06T09:14:24;21.00;99.90
19025;DHT22;9645;51.448;6.260;2022-07-06T09:16:52;21.30;99.90
19025;DHT22;9645;51.448;6.260;2022-07-06T09:19:19;21.30;99.90
19025;DHT22;9645;51.448;6.260;2022-07-06T09:21:48;21.50;99.90
19025;DHT22;9645;51.448;6.260;2022-07-06T09:24:15;21.40;99.90
19025;DHT22;9645;51.448;6.260;2022-07-06T09:26:42;20.80;99.90
19025;DHT22;9645;51.448;6.260;2022-07-06T09:29:10;20.60;99.90
19025;DHT22;9645;51.448;6.260;2022-07-06T09:31:37;20.50;99.90
19025;DHT22;9645;51.448;6.260;2022-07-06T09:34:05;21.00;99.90
19025;DHT22;9645;51.448;6.260;2022-07-06T09:36:41;21.50;99.90
19025;DHT22;9645;51.448;6.260;2022-07-06T09:39:18;22.10;99.90
19025;DHT22;9645;51.448;6.260;2022-07-06T09:41:45;23.00;99.90
19025;DHT22;9645;51.448;6.260;2022-07-06T09:44:12;23.60;99.90
19025;DHT22;9645;51.448;6.260;2022-07-06T09:46:40;23.90;99.90
19025;DHT22;9645;51.448;6.260;2022-07-06T09:49:08;24.00;99.90
19025;DHT22;9645;51.448;6.260;2022-07-06T09:51:36;24.50;99.90
19025;DHT22;9645;51.448;6.260;2022-07-06T09:54:06;24.40;99.60
19025;DHT22;9645;51.448;6.260;2022-07-06T09:56:39;24.90;99.70
19025;DHT22;9645;51.448;6.260;2022-07-06T09:59:08;25.30;98.40
19025;DHT22;9645;51.448;6.260;2022-07-06T10:01:36;25.60;98.30
19025;DHT22;9645;51.448;6.260;2022-07-06T10:04:04;26.00;95.90
19025;DHT22;9645;51.448;6.260;2022-07-06T10:06:31;26.40;95.70
19025;DHT22;9645;51.448;6.260;2022-07-06T10:08:59;25.90;95.90
19025;DHT22;9645;51.448;6.260;2022-07-06T10:11:28;25.60;96.70
19025;DHT22;9645;51.448;6.260;2022-07-06T10:13:57;24.60;97.10
19025;DHT22;9645;51.448;6.260;2022-07-06T10:16:25;24.40;98.20
19025;DHT22;9645;51.448;6.260;2022-07-06T10:18:53;24.40;97.40
19025;DHT22;9645;51.448;6.260;2022-07-06T10:21:22;24.20;98.00
19025;DHT22;9645;51.448;6.260;2022-07-06T10:23:50;24.20;95.90
19025;DHT22;9645;51.448;6.260;2022-07-06T10:26:18;24.20;95.80
19025;DHT22;9645;51.448;6.260;2022-07-06T10:28:45;24.40;96.80
19025;DHT22;9645;51.448;6.260;2022-07-06T10:31:15;24.80;94.40
19025;DHT22;9645;51.448;6.260;2022-07-06T10:33:44;25.00;94.70
19025;DHT22;9645;51.448;6.260;2022-07-06T10:36:12;25.20;96.50
19025;DHT22;9645;51.448;6.260;2022-07-06T10:38:40;25.70;95.80
19025;DHT22;9645;51.448;6.260;2022-07-06T10:41:08;26.60;92.50
19025;DHT22;9645;51.448;6.260;2022-07-06T10:43:35;27.00;91.20
19025;DHT22;9645;51.448;6.260;2022-07-06T10:46:07;27.40;91.90
19025;DHT22;9645;51.448;6.260;2022-07-06T10:48:38;26.80;91.70
19025;DHT22;9645;51.448;6.260;2022-07-06T10:51:05;26.30;88.10
19025;DHT22;9645;51.448;6.260;2022-07-06T10:53:33;25.20;90.80
19025;DHT22;9645;51.448;6.260;2022-07-06T10:56:03;24.50;91.30
19025;DHT22;9645;51.448;6.260;2022-07-06T10:58:54;24.10;95.20
19025;DHT22;9645;51.448;6.260;2022-07-06T11:01:21;24.50;93.80
19025;DHT22;9645;51.448;6.260;2022-07-06T11:04:05;24.20;91.50
19025;DHT22;9645;51.448;6.260;2022-07-06T11:06:33;23.80;91.50
19025;DHT22;9645;51.448;6.260;2022-07-06T11:09:01;24.00;91.60
19025;DHT22;9645;51.448;6.260;2022-07-06T11:11:39;24.40;92.00
19025;DHT22;9645;51.448;6.260;2022-07-06T11:14:08;24.80;94.10
19025;DHT22;9645;51.448;6.260;2022-07-06T11:16:38;24.40;93.80
19025;DHT22;9645;51.448;6.260;2022-07-06T11:19:09;24.30;91.00
19025;DHT22;9645;51.448;6.260;2022-07-06T11:21:54;24.10;92.80
19025;DHT22;9645;51.448;6.260;2022-07-06T11:24:24;24.10;91.00
19025;DHT22;9645;51.448;6.260;2022-07-06T11:26:52;24.10;92.10
19025;DHT22;9645;51.448;6.260;2022-07-06T11:29:21;24.10;91.90
19025;DHT22;9645;51.448;6.260;2022-07-06T11:31:51;23.90;91.90
19025;DHT22;9645;51.448;6.260;2022-07-06T11:34:22;23.80;93.00
19025;DHT22;9645;51.448;6.260;2022-07-06T11:36:49;23.60;93.10
19025;DHT22;9645;51.448;6.260;2022-07-06T11:39:20;23.30;92.70
19025;DHT22;9645;51.448;6.260;2022-07-06T11:41:47;23.00;92.70
19025;DHT22;9645;51.448;6.260;2022-07-06T11:44:14;23.10;94.10
19025;DHT22;9645;51.448;6.260;2022-07-06T11:46:41;23.30;95.20
19025;DHT22;9645;51.448;6.260;2022-07-06T11:49:09;23.60;94.00
19025;DHT22;9645;51.448;6.260;2022-07-06T11:51:38;24.00;93.30
19025;DHT22;9645;51.448;6.260;2022-07-06T11:54:09;24.30;92.00
19025;DHT22;9645;51.448;6.260;2022-07-06T11:56:37;24.70;90.70
19025;DHT22;9645;51.448;6.260;2022-07-06T11:59:04;24.90;90.80
19025;DHT22;9645;51.448;6.260;2022-07-06T12:01:31;24.90;91.20
19025;DHT22;9645;51.448;6.260;2022-07-06T12:03:59;24.50;91.00
19025;DHT22;9645;51.448;6.260;2022-07-06T12:06:27;24.40;90.30
19025;DHT22;9645;51.448;6.260;2022-07-06T12:08:57;24.60;91.20
19025;DHT22;9645;51.448;6.260;2022-07-06T12:11:27;24.80;90.60
19025;DHT22;9645;51.448;6.260;2022-07-06T12:13:56;24.80;87.70
19025;DHT22;9645;51.448;6.260;2022-07-06T12:16:29;24.40;88.70
19025;DHT22;9645;51.448;6.260;2022-07-06T12:18:57;24.20;89.60
19025;DHT22;9645;51.448;6.260;2022-07-06T12:21:24;24.20;90.90
19025;DHT22;9645;51.448;6.260;2022-07-06T12:23:53;24.00;84.70
19025;DHT22;9645;51.448;6.260;2022-07-06T12:26:23;24.10;90.50
19025;DHT22;9645;51.448;6.260;2022-07-06T12:29:01;24.60;90.60
19025;DHT22;9645;51.448;6.260;2022-07-06T12:31:35;24.80;89.90
19025;DHT22;9645;51.448;6.260;2022-07-06T12:34:02;24.90;88.80
19025;DHT22;9645;51.448;6.260;2022-07-06T12:36:29;24.50;89.00
19025;DHT22;9645;51.448;6.260;2022-07-06T12:38:56;24.30;89.40
19025;DHT22;9645;51.448;6.260;2022-07-06T12:41:32;24.70;91.00
19025;DHT22;9645;51.448;6.260;2022-07-06T12:44:05;25.40;89.20
19025;DHT22;9645;51.448;6.260;2022-07-06T12:46:34;26.50;90.80
19025;DHT22;9645;51.448;6.260;2022-07-06T12:49:06;26.70;88.20
19025;DHT22;9645;51.448;6.260;2022-07-06T12:51:54;26.80;85.40
19025;DHT22;9645;51.448;6.260;2022-07-06T12:54:22;26.20;85.90
19025;DHT22;9645;51.448;6.260;2022-07-06T12:57:08;26.30;84.20
19025;DHT22;9645;51.448;6.260;2022-07-06T12:59:40;26.10;87.60
19025;DHT22;9645;51.448;6.260;2022-07-06T13:02:18;25.90;81.00
19025;DHT22;9645;51.448;6.260;2022-07-06T13:04:55;25.50;80.10
19025;DHT22;9645;51.448;6.260;2022-07-06T13:07:22;25.50;86.30
19025;DHT22;9645;51.448;6.260;2022-07-06T13:09:50;24.90;84.00
19025;DHT22;9645;51.448;6.260;2022-07-06T13:12:18;24.90;90.90
19025;DHT22;9645;51.448;6.260;2022-07-06T13:14:45;24.30;85.00
19025;DHT22;9645;51.448;6.260;2022-07-06T13:17:12;24.40;90.50
19025;DHT22;9645;51.448;6.260;2022-07-06T13:19:39;24.90;83.00
19025;DHT22;9645;51.448;6.260;2022-07-06T13:22:06;25.10;86.20
19025;DHT22;9645;51.448;6.260;2022-07-06T13:24:34;25.10;87.50
19025;DHT22;9645;51.448;6.260;2022-07-06T13:27:01;25.30;85.40
19025;DHT22;9645;51.448;6.260;2022-07-06T13:29:29;24.90;90.00
19025;DHT22;9645;51.448;6.260;2022-07-06T13:31:56;25.10;88.00
19025;DHT22;9645;51.448;6.260;2022-07-06T13:34:23;25.00;88.20
19025;DHT22;9645;51.448;6.260;2022-07-06T13:36:51;25.50;84.90
19025;DHT22;9645;51.448;6.260;2022-07-06T13:39:18;25.50;84.90
19025;DHT22;9645;51.448;6.260;2022-07-06T13:41:46;25.90;82.70
19025;DHT22;9645;51.448;6.260;2022-07-06T13:44:13;26.20;83.90
19025;DHT22;9645;51.448;6.260;2022-07-06T13:46:42;25.70;81.50
19025;DHT22;9645;51.448;6.260;2022-07-06T13:49:09;25.50;84.10
19025;DHT22;9645;51.448;6.260;2022-07-06T13:51:36;25.50;83.70
19025;DHT22;9645;51.448;6.260;2022-07-06T13:54:03;25.50;87.50
19025;DHT22;9645;51.448;6.260;2022-07-06T13:56:30;25.70;84.90
19025;DHT22;9645;51.448;6.260;2022-07-06T13:58:57;25.80;83.50
19025;DHT22;9645;51.448;6.260;2022-07-06T14:01:24;24.40;85.60
19025;DHT22;9645;51.448;6.260;2022-07-06T14:03:53;25.30;82.80
19025;DHT22;9645;51.448;6.260;2022-07-06T14:06:20;25.30;87.00
19025;DHT22;9645;51.448;6.260;2022-07-06T14:08:48;25.50;84.90
19025;DHT22;9645;51.448;6.260;2022-07-06T14:11:15;25.50;84.80
19025;DHT22;9645;51.448;6.260;2022-07-06T14:13:42;25.10;86.40
19025;DHT22;9645;51.448;6.260;2022-07-06T14:16:09;24.70;86.70
19025;DHT22;9645;51.448;6.260;2022-07-06T14:18:36;24.90;85.40
19025;DHT22;9645;51.448;6.260;2022-07-06T14:21:05;25.30;88.60
19025;DHT22;9645;51.448;6.260;2022-07-06T14:23:32;24.60;87.40
19025;DHT22;9645;51.448;6.260;2022-07-06T14:25:59;24.70;85.70
19025;DHT22;9645;51.448;6.260;2022-07-06T14:28:26;24.10;86.50
19025;DHT22;9645;51.448;6.260;2022-07-06T14:30:53;23.70;87.90
19025;DHT22;9645;51.448;6.260;2022-07-06T14:33:20;23.90;90.70
19025;DHT22;9645;51.448;6.260;2022-07-06T14:35:48;24.40;89.20
19025;DHT22;9645;51.448;6.260;2022-07-06T14:38:18;24.30;89.30
19025;DHT22;9645;51.448;6.260;2022-07-06T14:40:46;24.50;87.10
19025;DHT22;9645;51.448;6.260;2022-07-06T14:43:14;24.30;87.00
19025;DHT22;9645;51.448;6.260;2022-07-06T14:45:43;24.00;86.20
19025;DHT22;9645;51.448;6.260;2022-07-06T14:48:10;24.40;90.20
19025;DHT22;9645;51.448;6.260;2022-07-06T14:50:37;24.60;89.30
19025;DHT22;9645;51.448;6.260;2022-07-06T14:53:04;24.90;86.50
19025;DHT22;9645;51.448;6.260;2022-07-06T14:55:32;24.80;87.30
19025;DHT22;9645;51.448;6.260;2022-07-06T14:57:59;24.80;87.10
19025;DHT22;9645;51.448;6.260;2022-07-06T15:00:26;24.80;84.90
19025;DHT22;9645;51.448;6.260;2022-07-06T15:02:53;25.10;90.00
19025;DHT22;9645;51.448;6.260;2022-07-06T15:05:20;24.90;84.70
19025;DHT22;9645;51.448;6.260;2022-07-06T15:07:47;24.80;89.20
19025;DHT22;9645;51.448;6.260;2022-07-06T15:10:14;24.60;83.90
19025;DHT22;9645;51.448;6.260;2022-07-06T15:12:42;24.70;86.30
19025;DHT22;9645;51.448;6.260;2022-07-06T15:15:10;24.90;89.40
19025;DHT22;9645;51.448;6.260;2022-07-06T15:17:37;25.00;87.00
19025;DHT22;9645;51.448;6.260;2022-07-06T15:20:05;25.10;87.90
19025;DHT22;9645;51.448;6.260;2022-07-06T15:22:32;25.20;88.90
19025;DHT22;9645;51.448;6.260;2022-07-06T15:25:01;25.10;86.10
19025;DHT22;9645;51.448;6.260;2022-07-06T15:27:28;25.10;89.30
19025;DHT22;9645;51.448;6.260;2022-07-06T15:29:57;25.20;86.40
19025;DHT22;9645;51.448;6.260;2022-07-06T15:32:24;25.30;86.90
19025;DHT22;9645;51.448;6.260;2022-07-06T15:34:51;25.10;84.10
19025;DHT22;9645;51.448;6.260;2022-07-06T15:37:18;24.90;86.70
19025;DHT22;9645;51.448;6.260;2022-07-06T15:39:45;25.00;89.80
19025;DHT22;9645;51.448;6.260;2022-07-06T15:42:12;25.30;87.60
19025;DHT22;9645;51.448;6.260;2022-07-06T15:44:39;25.00;83.20
19025;DHT22;9645;51.448;6.260;2022-07-06T15:47:08;25.00;87.90
19025;DHT22;9645;51.448;6.260;2022-07-06T15:49:35;24.80;85.30
19025;DHT22;9645;51.448;6.260;2022-07-06T15:52:02;24.50;86.00
19025;DHT22;9645;51.448;6.260;2022-07-06T15:54:29;24.60;87.20
19025;DHT22;9645;51.448;6.260;2022-07-06T15:56:56;24.80;87.60
19025;DHT22;9645;51.448;6.260;2022-07-06T15:59:23;25.10;90.00
19025;DHT22;9645;51.448;6.260;2022-07-06T16:01:51;25.10;86.70